createdAt,value
2023-01-11T00:01:23.944Z,100320.38
2023-01-11T00:04:13.743Z,100306.63
2023-01-11T00:07:02.269Z,100298.25
2023-01-11T00:09:50.747Z,100301.47
2023-01-11T00:12:39.210Z,100289.44
2023-01-11T00:15:27.643Z,100283.41
2023-01-11T00:18:16.161Z,100242.28
2023-01-11T00:21:06.738Z,100285.28
2023-01-11T00:23:55.207Z,100273.94
2023-01-11T00:26:43.677Z,100285.47
2023-01-11T00:29:32.118Z,100283.19
2023-01-11T00:32:20.544Z,100264.09
2023-01-11T00:35:09.654Z,100266.06
2023-01-11T00:37:59.711Z,100260.13
2023-01-11T00:40:48.124Z,100257.88
2023-01-11T00:43:54.470Z,100256.47
2023-01-11T00:47:00.422Z,100256.09
2023-01-11T00:49:48.904Z,100243.31
2023-01-11T00:52:37.491Z,100227.59
2023-01-11T00:55:27.663Z,100230.03
2023-01-11T00:58:16.155Z,100226.38
2023-01-11T01:01:07.693Z,100216.88
2023-01-11T01:03:56.159Z,100207.06
2023-01-11T01:06:44.610Z,100212.75
2023-01-11T01:09:33.488Z,100209.41
2023-01-11T01:12:37.236Z,100215.41
2023-01-11T01:15:28.945Z,100208.78
2023-01-11T01:18:17.382Z,100207.13
2023-01-11T01:21:05.922Z,100198.84
2023-01-11T01:23:54.597Z,100220.38
2023-01-11T01:26:43.071Z,100193.41
2023-01-11T01:29:32.861Z,100179.50
2023-01-11T01:32:21.405Z,100173.00
2023-01-11T01:35:10.494Z,100174.91
2023-01-11T01:37:58.947Z,100191.03
2023-01-11T01:40:48.646Z,100185.38
2023-01-11T01:43:48.904Z,100170.34
2023-01-11T01:46:38.781Z,100180.34
2023-01-11T01:49:27.320Z,100178.59
2023-01-11T01:52:15.838Z,100183.84
2023-01-11T01:55:08.630Z,100207.22
2023-01-11T01:57:58.374Z,100206.00
2023-01-11T02:00:47.342Z,100193.16
2023-01-11T02:03:37.113Z,100184.41
2023-01-11T02:06:27.336Z,100189.81
2023-01-11T02:09:22.273Z,100189.25
2023-01-11T02:12:10.694Z,100191.56
2023-01-11T02:15:00.871Z,100199.38
2023-01-11T02:17:49.356Z,100181.59
2023-01-11T02:20:50.107Z,100189.56
2023-01-11T02:24:01.872Z,100194.03
2023-01-11T02:27:25.355Z,100188.44
2023-01-11T02:30:21.491Z,100181.75
2023-01-11T02:33:18.004Z,100173.59
2023-01-11T02:36:10.499Z,100100.50
2023-01-11T02:39:03.678Z,100153.44
2023-01-11T02:42:14.761Z,100166.75
2023-01-11T02:45:08.550Z,100150.59
2023-01-11T02:48:01.262Z,100156.47
2023-01-11T02:50:53.080Z,100141.28
2023-01-11T02:53:45.854Z,100153.06
2023-01-11T02:56:38.232Z,100156.59
2023-01-11T02:59:31.805Z,100140.84
2023-01-11T03:02:20.254Z,100139.25
2023-01-11T03:05:14.018Z,100133.81
2023-01-11T03:08:06.288Z,100125.25
2023-01-11T03:11:03.275Z,100123.94
2023-01-11T03:13:57.783Z,100130.69
2023-01-11T03:16:53.004Z,100119.22
2023-01-11T03:19:45.536Z,100107.66
2023-01-11T03:22:41.675Z,100101.91
2023-01-11T03:25:34.758Z,100094.84
2023-01-11T03:28:28.466Z,100089.44
2023-01-11T03:31:21.799Z,100096.63
2023-01-11T03:34:17.175Z,100088.19
2023-01-11T03:37:09.253Z,100097.06
2023-01-11T03:40:04.143Z,100096.44
2023-01-11T03:43:12.707Z,100101.78
2023-01-11T03:46:03.915Z,100083.81
2023-01-11T03:48:55.121Z,100106.34
2023-01-11T03:51:44.908Z,100098.09
2023-01-11T03:54:34.420Z,100079.59
2023-01-11T03:57:25.789Z,100089.53
2023-01-11T04:00:14.829Z,100083.38
2023-01-11T04:03:03.710Z,100092.91
2023-01-11T04:05:54.377Z,100099.13
2023-01-11T04:08:42.807Z,100104.47
2023-01-11T04:11:31.375Z,100091.34
2023-01-11T04:14:21.307Z,100084.31
2023-01-11T04:17:09.744Z,100075.88
2023-01-11T04:19:58.166Z,100066.63
2023-01-11T04:22:46.576Z,100065.88
2023-01-11T04:25:35.063Z,100067.97
2023-01-11T04:28:23.510Z,100060.97
2023-01-11T04:31:13.717Z,100046.09
2023-01-11T04:34:02.212Z,100052.94
2023-01-11T04:36:50.710Z,100052.44
2023-01-11T04:39:39.268Z,100047.94
2023-01-11T04:42:27.754Z,100053.09
2023-01-11T04:45:16.461Z,100057.47
2023-01-11T04:48:06.867Z,100049.81
2023-01-11T04:50:55.337Z,100052.91
2023-01-11T04:53:43.735Z,100036.00
2023-01-11T04:56:32.351Z,100036.56
2023-01-11T04:59:20.801Z,100038.47
2023-01-11T05:02:09.324Z,100030.44
2023-01-11T05:04:59.094Z,100022.81
2023-01-11T05:07:49.518Z,100034.78
2023-01-11T05:10:37.915Z,100024.47
2023-01-11T05:13:41.542Z,100030.47
2023-01-11T05:16:30.083Z,100019.53
2023-01-11T05:19:18.817Z,100015.00
2023-01-11T05:22:08.783Z,100000.34
2023-01-11T05:24:57.242Z,100003.63
2023-01-11T05:27:45.730Z,99992.06
2023-01-11T05:30:34.279Z,99997.03
2023-01-11T05:33:22.954Z,99986.91
2023-01-11T05:36:13.677Z,99978.28
2023-01-11T05:39:05.127Z,99984.25
2023-01-11T05:41:53.678Z,99977.88
2023-01-11T05:44:59.511Z,99986.34
2023-01-11T05:47:48.019Z,99987.56
2023-01-11T05:50:36.452Z,99971.66
2023-01-11T05:53:25.242Z,99966.31
2023-01-11T05:56:15.106Z,99978.88
2023-01-11T05:59:03.910Z,99976.41
2023-01-11T06:01:52.490Z,99971.25
2023-01-11T06:04:40.969Z,99976.19
2023-01-11T06:07:29.376Z,99974.94
2023-01-11T06:10:17.936Z,99977.44
2023-01-11T06:13:25.186Z,99980.31
2023-01-11T06:16:15.954Z,99960.50
2023-01-11T06:19:04.671Z,99952.69
2023-01-11T06:21:53.211Z,99984.03
2023-01-11T06:24:41.641Z,99972.94
2023-01-11T06:27:30.116Z,99978.28
2023-01-11T06:30:20.662Z,99977.22
2023-01-11T06:33:09.122Z,99978.28
2023-01-11T06:35:58.024Z,99973.53
2023-01-11T06:38:46.597Z,99933.31
2023-01-11T06:41:35.023Z,99954.97
2023-01-11T06:44:23.471Z,99956.00
2023-01-11T06:47:13.336Z,99951.66
2023-01-11T06:50:01.833Z,99942.38
2023-01-11T06:52:54.490Z,99933.50
2023-01-11T06:55:43.001Z,99903.19
2023-01-11T06:58:31.521Z,99932.84
2023-01-11T07:01:20.154Z,99926.47
2023-01-11T07:04:10.081Z,99918.81
2023-01-11T07:06:59.089Z,99924.97
2023-01-11T07:09:47.528Z,99924.59
2023-01-11T07:12:36.077Z,99922.75
2023-01-11T07:15:24.623Z,99927.50
2023-01-11T07:18:13.398Z,99902.78
2023-01-11T07:21:03.442Z,99926.88
2023-01-11T07:23:52.921Z,99921.91
2023-01-11T07:26:42.043Z,99910.34
2023-01-11T07:29:30.694Z,99918.38
2023-01-11T07:32:19.138Z,99924.97
2023-01-11T07:35:08.657Z,99920.44
2023-01-11T07:37:58.473Z,99919.16
2023-01-11T07:40:46.932Z,99912.56
2023-01-11T07:43:34.410Z,99919.34
2023-01-11T07:46:22.977Z,99911.72
2023-01-11T07:49:12.000Z,99908.41
2023-01-11T07:52:00.475Z,99903.44
2023-01-11T07:54:50.332Z,99911.66
2023-01-11T07:57:38.837Z,99903.75
2023-01-11T08:00:27.538Z,99895.31
2023-01-11T08:03:16.071Z,99898.66
2023-01-11T08:06:04.815Z,99903.97
2023-01-11T08:08:53.326Z,99909.09
2023-01-11T08:11:57.054Z,99920.28
2023-01-11T08:14:45.734Z,99915.97
2023-01-11T08:17:35.762Z,99916.81
2023-01-11T08:20:24.496Z,99921.13
2023-01-11T08:23:12.937Z,99929.38
2023-01-11T08:26:01.447Z,99916.03
2023-01-11T08:28:51.314Z,99932.53
2023-01-11T08:31:39.937Z,99937.03
2023-01-11T08:34:29.575Z,99942.81
2023-01-11T08:37:18.199Z,99915.25
2023-01-11T08:40:07.942Z,99926.53
2023-01-11T08:42:57.159Z,99922.22
2023-01-11T08:45:47.118Z,99943.44
2023-01-11T08:48:36.093Z,99940.56
2023-01-11T08:51:24.552Z,99930.19
2023-01-11T08:54:14.486Z,99935.69
2023-01-11T08:57:02.962Z,99929.31
2023-01-11T08:59:51.518Z,99934.22
2023-01-11T09:02:41.497Z,99942.06
2023-01-11T09:05:30.116Z,99945.97
2023-01-11T09:08:18.624Z,99944.75
2023-01-11T09:11:27.059Z,99950.53
2023-01-11T09:14:15.568Z,99939.38
2023-01-11T09:17:04.091Z,99936.06
2023-01-11T09:19:53.975Z,99936.84
2023-01-11T09:22:43.091Z,99950.31
2023-01-11T09:25:31.700Z,99955.13
2023-01-11T09:28:20.136Z,99951.16
2023-01-11T09:31:09.388Z,99947.13
2023-01-11T09:33:57.825Z,99955.16
2023-01-11T09:36:49.062Z,99957.44
2023-01-11T09:39:39.075Z,99961.56
2023-01-11T09:42:37.484Z,99965.28
2023-01-11T09:45:28.306Z,99966.56
2023-01-11T09:48:26.941Z,99964.72
2023-01-11T09:51:17.118Z,99954.81
2023-01-11T09:54:10.601Z,99953.16
2023-01-11T09:57:08.099Z,99943.44
2023-01-11T10:00:04.937Z,99944.72
2023-01-11T10:03:10.986Z,99957.72
2023-01-11T10:06:09.102Z,99959.50
2023-01-11T10:18:33.613Z,99969.88
2023-01-11T10:19:31.636Z,99936.66
2023-01-11T10:22:18.906Z,99961.03
2023-01-11T10:25:18.677Z,99968.03
2023-01-11T10:28:09.106Z,99962.25
2023-01-11T10:31:11.895Z,99969.09
2023-01-11T10:34:30.544Z,99962.06
2023-01-11T10:37:40.210Z,99862.75
2023-01-11T10:40:39.790Z,99937.34
2023-01-11T10:43:29.524Z,99937.97
2023-01-11T10:46:19.447Z,99972.19
2023-01-11T10:49:32.923Z,99969.28
2023-01-11T10:52:32.647Z,99975.28
2023-01-11T10:55:27.787Z,99983.09
2023-01-11T10:58:30.192Z,99968.47
2023-01-11T11:01:28.809Z,99969.28
2023-01-11T11:04:33.041Z,99975.09
2023-01-11T11:07:26.793Z,99956.91
2023-01-11T11:10:21.725Z,99940.41
2023-01-11T11:13:14.671Z,99929.06
2023-01-11T11:16:09.052Z,99974.66
2023-01-11T11:18:59.861Z,99959.81
2023-01-11T11:21:48.880Z,99961.66
2023-01-11T11:24:39.752Z,99958.00
2023-01-11T11:27:31.202Z,99959.19
2023-01-11T11:30:28.072Z,99961.06
2023-01-11T11:33:21.981Z,99957.75
2023-01-11T11:36:12.471Z,99958.81
2023-01-11T11:39:11.242Z,99963.78
2023-01-11T11:42:07.247Z,99963.59
2023-01-11T11:45:16.580Z,99960.47
2023-01-11T11:48:06.957Z,99958.84
2023-01-11T11:50:58.977Z,99963.41
2023-01-11T11:53:51.747Z,99966.47
2023-01-11T11:56:41.739Z,99963.16
2023-01-11T11:59:33.085Z,99939.88
2023-01-11T12:02:23.974Z,99958.63
2023-01-11T12:05:12.750Z,99958.22
2023-01-11T12:08:02.895Z,99916.75
2023-01-11T12:10:54.062Z,99965.44
2023-01-11T12:13:43.306Z,99950.16
2023-01-11T12:16:33.200Z,99948.53
2023-01-11T12:19:35.427Z,99947.31
2023-01-11T12:22:25.043Z,99721.50
2023-01-11T12:25:22.553Z,99947.09
2023-01-11T12:28:18.372Z,99953.09
2023-01-11T12:31:12.279Z,99946.84
2023-01-11T12:34:08.029Z,99949.53
2023-01-11T12:37:05.201Z,99946.44
2023-01-11T12:40:00.335Z,99949.53
2023-01-11T12:42:59.547Z,99957.81
2023-01-11T12:45:51.444Z,99950.38
2023-01-11T12:48:49.776Z,99975.31
2023-01-11T12:51:58.255Z,99990.22
2023-01-11T12:54:54.852Z,99993.31
2023-01-11T12:57:59.830Z,99994.78
2023-01-11T13:01:04.714Z,99987.94
2023-01-11T13:04:25.833Z,99986.31
2023-01-11T13:07:25.517Z,99981.16
2023-01-11T13:10:22.193Z,99992.72
2023-01-11T13:13:14.264Z,99995.59
2023-01-11T13:16:09.549Z,99999.31
2023-01-11T13:19:01.495Z,99992.91
2023-01-11T13:21:53.415Z,100005.09
2023-01-11T13:24:45.093Z,100015.19
2023-01-11T13:27:34.418Z,100015.19
2023-01-11T13:30:24.465Z,100012.09
2023-01-11T13:33:18.643Z,100015.22
2023-01-11T13:36:22.656Z,100026.34
2023-01-11T13:39:15.888Z,100019.09
2023-01-11T13:42:06.136Z,100036.44
2023-01-11T13:44:57.959Z,100001.56
2023-01-11T13:47:49.749Z,100038.09
2023-01-11T13:50:44.697Z,100051.28
2023-01-11T13:53:37.864Z,100045.53
2023-01-11T13:56:31.219Z,100045.75
2023-01-11T13:59:23.181Z,100048.00
2023-01-11T14:02:16.887Z,100051.31
2023-01-11T14:05:09.007Z,100053.16
2023-01-11T14:08:15.226Z,100054.63
2023-01-11T14:11:11.420Z,100059.56
2023-01-11T14:14:14.224Z,100059.16
2023-01-11T14:17:23.570Z,100081.03
2023-01-11T14:20:19.491Z,100078.13
2023-01-11T14:23:13.126Z,100078.97
2023-01-11T14:26:16.701Z,100095.88
2023-01-11T14:29:18.828Z,100101.88
2023-01-11T14:32:31.882Z,100104.75
2023-01-11T14:35:53.367Z,100111.13
2023-01-11T14:39:28.246Z,100108.03
2023-01-11T14:42:49.610Z,100111.97
2023-01-11T14:45:52.176Z,100121.84
2023-01-11T14:48:45.464Z,100130.53
2023-01-11T14:51:38.977Z,100130.31
2023-01-11T14:54:31.303Z,100128.91
2023-01-11T14:57:37.734Z,100118.56
2023-01-11T15:01:04.367Z,100151.16
2023-01-11T15:03:57.338Z,100155.28
2023-01-11T15:06:54.484Z,100158.38
2023-01-11T15:09:46.342Z,100157.75
2023-01-11T15:12:36.563Z,100163.13
2023-01-11T15:15:50.359Z,100171.19
2023-01-11T15:18:45.550Z,100171.59
2023-01-11T15:21:36.758Z,100169.28
2023-01-11T15:24:29.066Z,100063.28
2023-01-11T15:27:26.534Z,100179.16
2023-01-11T15:30:39.514Z,100171.72
2023-01-11T15:33:46.196Z,100179.78
2023-01-11T15:37:31.322Z,100197.50
2023-01-11T15:40:21.672Z,100195.06
2023-01-11T15:43:31.496Z,100202.25
2023-01-11T15:46:56.538Z,100202.66
2023-01-11T15:50:13.531Z,100205.88
2023-01-11T15:53:32.225Z,100228.81
2023-01-11T15:56:44.435Z,100227.72
2023-01-11T15:59:59.366Z,100218.97
2023-01-11T16:03:12.146Z,100240.06
2023-01-11T16:06:09.059Z,100255.66
2023-01-11T16:09:03.141Z,100255.59
2023-01-11T16:12:00.527Z,100275.13
2023-01-11T16:15:20.155Z,100277.03
2023-01-11T16:18:13.670Z,100285.72
2023-01-11T16:21:03.882Z,100287.09
2023-01-11T16:23:52.551Z,100278.41
2023-01-11T16:26:41.844Z,100276.53
2023-01-11T16:29:34.570Z,100295.31
2023-01-11T16:32:27.013Z,100294.09
2023-01-11T16:35:20.161Z,100306.28
2023-01-11T16:38:15.176Z,100281.56
2023-01-11T16:41:06.742Z,100321.97
2023-01-11T16:44:00.039Z,100329.38
2023-01-11T16:47:11.431Z,100315.63
2023-01-11T16:50:20.905Z,100348.06
2023-01-11T16:53:13.090Z,100342.72
2023-01-11T16:56:05.571Z,100346.31
2023-01-11T16:59:06.638Z,100331.47
2023-01-11T17:01:56.435Z,100345.94
2023-01-11T17:04:51.821Z,100335.44
2023-01-11T17:07:41.753Z,100319.81
2023-01-11T17:10:31.063Z,100338.41
2023-01-11T17:13:51.113Z,100359.63
2023-01-11T17:16:42.055Z,100364.97
2023-01-11T17:19:32.409Z,100358.28
2023-01-11T17:22:23.656Z,100374.47
2023-01-11T17:25:19.868Z,100376.00
2023-01-11T17:28:15.670Z,100325.34
2023-01-11T17:31:04.132Z,100390.75
2023-01-11T17:34:01.845Z,100388.13
2023-01-11T17:36:50.808Z,100403.69
2023-01-11T17:39:43.141Z,100405.09
2023-01-11T17:42:50.638Z,100414.31
2023-01-11T17:45:39.499Z,100413.88
2023-01-11T17:48:28.724Z,100433.06
2023-01-11T17:51:25.259Z,100428.25
2023-01-11T17:54:20.377Z,100421.25
2023-01-11T17:57:10.020Z,100441.75
2023-01-11T18:00:18.741Z,100450.03
2023-01-11T18:03:10.922Z,100439.50
2023-01-11T18:06:00.098Z,100433.53
2023-01-11T18:08:49.657Z,100453.91
2023-01-11T18:11:40.879Z,100454.50
2023-01-11T18:14:32.949Z,100461.72
2023-01-11T18:17:35.918Z,100435.53
2023-01-11T18:20:48.551Z,100467.78
2023-01-11T18:23:37.069Z,100470.81
2023-01-11T18:26:28.103Z,100464.75
2023-01-11T18:29:20.126Z,100484.19
2023-01-11T18:32:11.251Z,100490.09
2023-01-11T18:35:02.406Z,100481.59
2023-01-11T18:37:51.006Z,100485.22
2023-01-11T18:40:39.565Z,100480.59
2023-01-11T18:43:29.649Z,100485.78
2023-01-11T18:46:18.314Z,100473.13
2023-01-11T18:49:06.929Z,100503.06
2023-01-11T18:51:56.830Z,100493.88
2023-01-11T18:54:45.757Z,100503.22
2023-01-11T18:57:34.298Z,100480.81
2023-01-11T19:00:23.111Z,100358.72
2023-01-11T19:06:07.447Z,100517.59
2023-01-11T19:08:57.317Z,100522.41
2023-01-11T19:11:45.753Z,100518.97
2023-01-11T19:14:34.370Z,100518.72
2023-01-11T19:17:23.026Z,100518.44
2023-01-11T19:20:14.005Z,100520.97
2023-01-11T19:23:02.607Z,100532.16
2023-01-11T19:25:58.671Z,100539.53
2023-01-11T19:28:47.200Z,100523.44
2023-01-11T19:31:35.872Z,100542.38
2023-01-11T19:34:24.840Z,100535.00
2023-01-11T19:37:13.392Z,100537.97
2023-01-11T19:40:02.579Z,100537.66
2023-01-11T19:42:52.566Z,100507.31
2023-01-11T19:45:41.491Z,100532.59
2023-01-11T19:48:33.877Z,100402.03
2023-01-11T19:51:22.372Z,100512.47
2023-01-11T19:54:13.105Z,100535.56
2023-01-11T19:57:01.717Z,100537.28
2023-01-11T19:59:51.801Z,100468.13
2023-01-11T20:02:40.776Z,100530.13
2023-01-11T20:05:29.413Z,100541.69
2023-01-11T20:08:18.050Z,100286.44
2023-01-11T20:11:08.185Z,100526.59
2023-01-11T20:13:56.745Z,100517.66
2023-01-11T20:16:46.638Z,100523.94
2023-01-11T20:19:35.204Z,100540.44
2023-01-11T20:24:56.078Z,100525.53
2023-01-11T20:27:44.855Z,100523.56
2023-01-11T20:30:33.408Z,100520.34
2023-01-11T20:33:23.452Z,100509.28
2023-01-11T20:36:13.944Z,100530.56
2023-01-11T20:39:02.529Z,100525.88
2023-01-11T20:41:51.102Z,100522.53
2023-01-11T20:44:39.621Z,100508.81
2023-01-11T20:47:28.136Z,100525.44
2023-01-11T20:50:18.208Z,100528.94
2023-01-11T20:53:08.876Z,100528.19
2023-01-11T20:55:58.046Z,100526.41
2023-01-11T20:58:48.360Z,100528.00
2023-01-11T21:01:37.459Z,100493.66
2023-01-11T21:04:26.147Z,100505.88
2023-01-11T21:07:15.973Z,100516.78
2023-01-11T21:10:04.848Z,100517.41
2023-01-11T21:12:56.440Z,100536.66
2023-01-11T21:15:44.981Z,100521.16
2023-01-11T21:18:33.465Z,100506.50
2023-01-11T21:21:21.951Z,100514.47
2023-01-11T21:24:13.747Z,100525.53
2023-01-11T21:27:02.353Z,100514.66
2023-01-11T21:29:50.885Z,100496.53
2023-01-11T21:32:39.393Z,100514.53
2023-01-11T21:35:28.121Z,100518.59
2023-01-11T21:38:16.596Z,100510.75
2023-01-11T21:41:07.937Z,100503.28
2023-01-11T21:43:56.371Z,100502.94
2023-01-11T21:46:45.543Z,100491.03
2023-01-11T21:49:34.457Z,100491.56
2023-01-11T21:52:22.922Z,100496.56
2023-01-11T21:55:11.937Z,100497.59
2023-01-11T21:58:01.792Z,100495.72
2023-01-11T22:00:50.322Z,100488.91
2023-01-11T22:03:39.251Z,100486.31
2023-01-11T22:06:27.763Z,100492.69
2023-01-11T22:09:16.447Z,100500.88
2023-01-11T22:12:05.137Z,100513.59
2023-01-11T22:14:55.201Z,100516.63
2023-01-11T22:17:43.751Z,100511.63
2023-01-11T22:20:32.249Z,100520.19
2023-01-11T22:23:20.935Z,100520.28
2023-01-11T22:26:11.013Z,100525.16
2023-01-11T22:29:15.798Z,100529.50
2023-01-11T22:32:06.054Z,100528.94
2023-01-11T22:34:54.513Z,100514.94
2023-01-11T22:37:42.931Z,100525.47
2023-01-11T22:40:31.345Z,100525.63
2023-01-11T22:43:19.840Z,100514.84
2023-01-11T22:46:08.346Z,100527.59
2023-01-11T22:48:58.652Z,100518.06
2023-01-11T22:51:47.111Z,100498.16
2023-01-11T22:54:35.612Z,100515.78
2023-01-11T22:57:24.150Z,100511.09
2023-01-11T23:00:13.504Z,100512.63
2023-01-11T23:03:01.972Z,100524.50
2023-01-11T23:05:51.846Z,100509.88
2023-01-11T23:08:42.301Z,100524.25
2023-01-11T23:11:46.723Z,100516.78
2023-01-11T23:14:35.160Z,100521.50
2023-01-11T23:17:23.687Z,100519.41
2023-01-11T23:20:13.183Z,100524.25
2023-01-11T23:23:03.100Z,100524.44
2023-01-11T23:25:54.988Z,100520.28
2023-01-11T23:28:43.432Z,100506.56
2023-01-11T23:31:31.945Z,100503.22
2023-01-11T23:34:20.408Z,100522.63
2023-01-11T23:37:09.331Z,100506.25
2023-01-11T23:39:59.194Z,100519.50
2023-01-11T23:42:46.696Z,100525.78
2023-01-11T23:45:37.965Z,100521.75
2023-01-11T23:48:26.504Z,100527.19
2023-01-11T23:51:14.973Z,100527.19
2023-01-11T23:54:04.597Z,100509.03
2023-01-11T23:56:54.462Z,100511.16
2023-01-11T23:59:43.921Z,100499.19
